Time;durP1;ratioP1;P1;durP2;ratioP2;P2;SDS_P1;SDS_P2;PMS_P1;PMS_P2;Temp;Humidity;BMP_temperature;BMP_pressure;BME280_temperature;BME280_humidity;BME280_pressure;Samples;Min_cycle;Max_cycle;Signal;HPM_P1;HPM_P2
2021/07/13 00:02:03;;;;;;;10.03;7.83;;;;;;;21.34;79.25;99754.69;1597939;89;21202;-69
2021/07/13 00:04:29;;;;;;;20.05;8.65;;;;;;;21.08;80.00;99749.67;1633596;87;21056;-73
2021/07/13 00:06:57;;;;;;;13.25;8.68;;;;;;;20.93;81.68;99754.20;1603550;88;20988;-79
2021/07/13 00:09:24;;;;;;;9.00;7.53;;;;;;;20.95;81.86;99753.34;1623604;88;20980;-70
2021/07/13 00:11:51;;;;;;;11.75;8.03;;;;;;;20.96;81.97;99759.06;1598093;88;21088;-74
2021/07/13 00:14:17;;;;;;;13.05;8.55;;;;;;;20.87;82.54;99752.98;1622763;87;21055;-73
2021/07/13 00:16:45;;;;;;;13.53;8.83;;;;;;;20.87;82.24;99751.61;1638124;87;20926;-74
2021/07/13 00:19:11;;;;;;;9.65;7.85;;;;;;;20.80;82.57;99763.59;1650369;87;21051;-74
2021/07/13 00:21:38;;;;;;;10.18;9.15;;;;;;;20.67;83.21;99762.33;1650311;87;21071;-74
2021/07/13 00:24:07;;;;;;;9.60;8.60;;;;;;;20.57;83.52;99761.23;1641574;86;21100;-72
2021/07/13 00:26:35;;;;;;;15.45;9.08;;;;;;;20.42;84.18;99762.44;1648645;87;21177;-74
2021/07/13 00:29:03;;;;;;;12.03;8.38;;;;;;;20.39;84.75;99761.12;1607114;88;21035;-71
2021/07/13 00:31:33;;;;;;;13.70;8.45;;;;;;;20.50;84.49;99763.03;1598236;89;21015;-72
2021/07/13 00:34:00;;;;;;;10.18;7.97;;;;;;;20.58;84.02;99768.28;1618088;87;21136;-71
2021/07/13 00:36:26;;;;;;;13.05;8.48;;;;;;;20.66;83.91;99771.08;1624158;87;21561;-70
2021/07/13 00:38:52;;;;;;;10.85;8.48;;;;;;;20.76;83.38;99774.91;1624836;87;22468;-70
2021/07/13 00:41:19;;;;;;;14.40;8.70;;;;;;;20.82;83.16;99764.05;1624189;87;21734;-70
2021/07/13 00:43:48;;;;;;;12.88;7.75;;;;;;;20.85;82.54;99761.27;1604573;87;21015;-71
2021/07/13 00:46:14;;;;;;;15.93;8.80;;;;;;;20.87;82.67;99762.55;1650497;87;20944;-69
2021/07/13 00:48:41;;;;;;;10.55;8.18;;;;;;;20.97;82.36;99760.65;1650493;87;21032;-70
2021/07/13 00:51:09;;;;;;;18.37;8.35;;;;;;;21.07;81.73;99756.26;1650349;87;21906;-69
2021/07/13 00:53:35;;;;;;;11.53;8.03;;;;;;;21.08;81.50;99757.87;1643214;87;20945;-70
2021/07/13 00:56:02;;;;;;;11.53;9.28;;;;;;;21.12;81.15;99758.85;1646747;87;21751;-71
2021/07/13 00:58:29;;;;;;;14.90;9.28;;;;;;;21.16;80.93;99768.06;1613905;86;21499;-72
2021/07/13 01:00:55;;;;;;;13.28;10.95;;;;;;;21.05;80.86;99770.27;1629380;86;21049;-73
2021/07/13 01:03:22;;;;;;;14.58;11.25;;;;;;;20.88;81.40;99765.53;1623165;86;21874;-72
2021/07/13 01:05:48;;;;;;;14.73;10.85;;;;;;;20.63;82.46;99769.52;1598087;89;21052;-72
2021/07/13 01:08:35;;;;;;;11.57;10.20;;;;;;;20.43;83.64;99766.78;1575322;88;21045;-72
2021/07/13 01:11:33;;;;;;;13.60;9.95;;;;;;;20.33;84.80;99771.95;1577603;89;21091;-70
2021/07/13 01:14:10;;;;;;;14.03;10.05;;;;;;;20.25;85.25;99765.02;1615667;87;21017;-71
2021/07/13 01:16:51;;;;;;;13.20;10.48;;;;;;;20.23;84.90;99766.72;1578411;89;21029;-71
2021/07/13 01:20:04;;;;;;;13.98;10.40;;;;;;;20.15;85.22;99760.61;1598131;89;20987;-71
2021/07/13 01:22:49;;;;;;;16.60;12.28;;;;;;;20.09;86.11;99764.61;1630274;87;21041;-73
2021/07/13 01:25:48;;;;;;;16.00;10.70;;;;;;;20.17;85.73;99768.50;1566245;91;21561;-70
2021/07/13 01:28:20;;;;;;;17.30;10.48;;;;;;;20.18;86.44;99768.20;1623865;88;21524;-72
2021/07/13 01:30:51;;;;;;;16.48;9.90;;;;;;;20.32;86.12;99768.16;1624480;87;21618;-71
2021/07/13 01:33:23;;;;;;;10.88;9.33;;;;;;;20.38;85.36;99758.13;1621447;88;21554;-70
2021/07/13 01:36:10;;;;;;;15.40;10.80;;;;;;;20.48;85.53;99759.80;1622369;88;21063;-70
2021/07/13 01:38:40;;;;;;;21.48;12.05;;;;;;;20.63;84.47;99755.30;1621493;88;21160;-72
2021/07/13 01:41:14;;;;;;;17.32;10.93;;;;;;;20.78;83.51;99756.25;1629034;87;21077;-71
2021/07/13 01:43:41;;;;;;;15.78;10.10;;;;;;;20.78;83.51;99756.25;1611529;88;21047;-71
2021/07/13 01:46:08;;;;;;;18.25;14.45;;;;;;;20.92;81.91;99753.95;1603616;88;21055;-72
2021/07/13 01:48:36;;;;;;;24.37;15.32;;;;;;;20.81;81.42;99757.56;1631379;87;20914;-73
2021/07/13 01:51:05;;;;;;;29.15;16.35;;;;;;;20.55;82.52;99756.63;1650661;87;21048;-72
2021/07/13 01:53:33;;;;;;;20.57;13.55;;;;;;;20.41;84.69;99762.19;1637420;86;20980;-71
2021/07/13 01:56:00;;;;;;;18.77;11.80;;;;;;;20.39;84.41;99761.67;1623839;88;21170;-72
2021/07/13 01:58:29;;;;;;;28.90;13.15;;;;;;;20.43;83.99;99762.69;1623862;88;21041;-72
2021/07/13 02:01:09;;;;;;;22.67;12.82;;;;;;;20.39;83.60;99760.31;1603793;88;21107;-71
2021/07/13 02:03:35;;;;;;;19.45;10.75;;;;;;;20.41;83.89;99762.99;1624284;87;21049;-72
2021/07/13 02:06:03;;;;;;;31.68;11.22;;;;;;;20.49;83.82;99758.68;1624009;88;21028;-73
2021/07/13 02:08:29;;;;;;;18.35;12.10;;;;;;;20.58;83.75;99760.89;1634244;87;21237;-71
2021/07/13 02:10:57;;;;;;;20.30;13.95;;;;;;;20.68;83.18;99766.64;1625533;87;20913;-71
2021/07/13 02:13:25;;;;;;;21.00;12.68;;;;;;;20.77;82.97;99764.20;1625942;87;21047;-71
2021/07/13 02:15:52;;;;;;;16.95;10.68;;;;;;;20.92;82.47;99767.63;1650314;87;21373;-71
2021/07/13 02:18:20;;;;;;;13.45;10.55;;;;;;;21.03;81.57;99776.61;1650302;85;21012;-72
2021/07/13 02:20:47;;;;;;;18.48;11.10;;;;;;;21.05;81.05;99770.27;1648920;87;21559;-71
2021/07/13 02:23:13;;;;;;;18.12;12.58;;;;;;;21.07;80.48;99769.38;1623275;88;21044;-72
2021/07/13 02:25:41;;;;;;;14.30;10.68;;;;;;;21.07;80.43;99769.94;1616978;87;21055;-72
2021/07/13 02:28:29;;;;;;;13.62;11.28;;;;;;;21.14;80.51;99776.61;1590597;87;21533;-71
2021/07/13 02:31:11;;;;;;;18.40;11.25;;;;;;;21.25;79.98;99778.46;1602429;88;21136;-71
2021/07/13 02:33:48;;;;;;;17.37;10.85;;;;;;;21.32;79.32;99780.19;1626767;87;21031;-70
2021/07/13 02:36:18;;;;;;;20.23;10.70;;;;;;;21.37;79.18;99784.70;1647262;87;21154;-72
2021/07/13 02:38:45;;;;;;;11.48;9.30;;;;;;;21.33;78.75;99776.33;1622295;87;21033;-71
2021/07/13 02:41:15;;;;;;;11.88;9.30;;;;;;;21.21;78.28;99775.56;1627970;87;38654;-72
2021/07/13 02:43:43;;;;;;;10.48;8.93;;;;;;;20.97;78.72;99776.50;1626049;87;21044;-71
2021/07/13 02:46:10;;;;;;;13.90;10.10;;;;;;;20.80;79.58;99784.64;1637856;86;22010;-71
2021/07/13 02:48:37;;;;;;;12.23;8.75;;;;;;;20.73;79.90;99792.48;1596563;88;21110;-71
2021/07/13 02:51:04;;;;;;;15.43;9.73;;;;;;;20.74;80.52;99801.74;1643338;87;21716;-71
2021/07/13 02:53:32;;;;;;;9.58;8.23;;;;;;;20.80;80.13;99803.23;1633154;87;21039;-72
2021/07/13 02:56:02;;;;;;;11.65;10.20;;;;;;;20.83;80.27;99794.94;1575371;88;21012;-71
2021/07/13 02:58:29;;;;;;;15.75;9.05;;;;;;;20.88;79.80;99785.23;1632979;87;22082;-72
2021/07/13 03:00:57;;;;;;;13.43;8.58;;;;;;;20.95;79.92;99788.33;1638478;87;21009;-71
2021/07/13 03:03:23;;;;;;;11.55;8.55;;;;;;;21.01;79.78;99793.88;1610070;87;20968;-71
2021/07/13 03:05:51;;;;;;;11.90;9.20;;;;;;;21.08;79.56;99797.54;1616385;88;21107;-72
2021/07/13 03:08:21;;;;;;;12.75;10.15;;;;;;;21.05;79.13;99792.71;1611996;87;21077;-71
2021/07/13 03:10:48;;;;;;;12.18;9.40;;;;;;;20.80;80.28;99795.58;1650687;86;22163;-70
2021/07/13 03:13:15;;;;;;;13.90;9.40;;;;;;;20.65;81.09;99797.35;1631727;87;20972;-71
2021/07/13 03:15:42;;;;;;;10.45;9.15;;;;;;;20.68;81.57;99798.89;1626263;88;20992;-71
2021/07/13 03:18:08;;;;;;;11.88;10.20;;;;;;;20.79;81.34;99796.14;1630860;87;20965;-72
2021/07/13 03:20:35;;;;;;;14.45;9.80;;;;;;;20.88;81.00;99796.98;1603754;87;21076;-71
2021/07/13 03:23:01;;;;;;;13.75;10.38;;;;;;;21.01;80.82;99805.38;1598355;89;21954;-71
2021/07/13 03:25:36;;;;;;;22.87;11.95;;;;;;;21.13;80.37;99805.08;1621136;87;21024;-70
2021/07/13 03:28:03;;;;;;;12.50;10.48;;;;;;;21.22;79.89;99801.80;1630108;87;21016;-71
2021/07/13 03:30:30;;;;;;;14.23;9.65;;;;;;;21.32;79.58;99796.59;1649502;87;21037;-72
2021/07/13 03:32:57;;;;;;;11.18;9.13;;;;;;;21.42;79.13;99793.56;1628394;87;21557;-71
2021/07/13 03:35:23;;;;;;;13.58;10.38;;;;;;;21.48;78.99;99791.48;1629267;87;21082;-72
2021/07/13 03:37:50;;;;;;;10.15;8.88;;;;;;;21.50;78.76;99791.40;1626869;87;21601;-72
2021/07/13 03:40:23;;;;;;;12.43;8.90;;;;;;;21.50;78.80;99790.03;1635656;87;21606;-71
2021/07/13 03:42:50;;;;;;;10.65;8.43;;;;;;;21.48;78.45;99779.17;1598099;88;21064;-71
2021/07/13 03:45:17;;;;;;;9.95;8.43;;;;;;;21.47;78.23;99781.66;1606147;87;21123;-71
2021/07/13 03:47:48;;;;;;;15.00;9.05;;;;;;;21.45;78.31;99786.08;1623878;88;21792;-73
2021/07/13 03:50:18;;;;;;;15.97;9.00;;;;;;;21.52;78.28;99782.31;1595125;90;20990;-70
2021/07/13 03:52:44;;;;;;;10.60;9.25;;;;;;;21.60;77.77;99785.62;1635218;87;20972;-72
2021/07/13 03:55:12;;;;;;;17.85;10.10;;;;;;;21.64;77.29;99787.14;1634151;87;21130;-71
2021/07/13 03:57:39;;;;;;;12.93;9.23;;;;;;;21.67;77.11;99785.97;1623519;87;21065;-72
2021/07/13 04:00:15;;;;;;;15.50;10.53;;;;;;;21.77;77.03;99786.21;1629492;87;21029;-71
2021/07/13 04:02:41;;;;;;;11.53;9.38;;;;;;;21.87;76.50;99785.09;1619393;88;20992;-72
2021/07/13 04:05:10;;;;;;;10.82;9.18;;;;;;;21.97;76.38;99795.16;1623952;88;21057;-72
2021/07/13 04:07:38;;;;;;;15.98;8.93;;;;;;;22.09;75.92;99789.05;1623958;87;20968;-74
2021/07/13 04:10:11;;;;;;;17.12;9.83;;;;;;;22.25;75.37;99792.09;1624041;88;21048;-72
2021/07/13 04:12:37;;;;;;;15.35;8.65;;;;;;;22.37;74.41;99793.03;1578775;89;21130;-72
2021/07/13 04:15:07;;;;;;;23.00;9.15;;;;;;;22.50;73.79;99793.96;1574191;90;21014;-71
2021/07/13 04:17:33;;;;;;;18.12;8.13;;;;;;;22.60;72.73;99806.77;1624016;88;21032;-71
2021/07/13 04:20:00;;;;;;;17.30;9.43;;;;;;;22.68;71.59;99807.89;1623942;88;21604;-70
2021/07/13 04:22:28;;;;;;;20.35;9.13;;;;;;;22.67;69.21;99789.02;1648531;87;20988;-72
2021/07/13 04:24:55;;;;;;;29.25;10.18;;;;;;;22.66;69.67;99790.14;1643258;87;21775;-72
2021/07/13 04:27:21;;;;;;;19.85;8.55;;;;;;;22.72;70.06;99790.23;1635890;87;21577;-72
2021/07/13 04:29:48;;;;;;;27.15;8.60;;;;;;;22.77;69.39;99785.95;1622302;87;21582;-71
2021/07/13 04:32:16;;;;;;;33.23;8.15;;;;;;;22.79;69.21;99790.52;1650498;87;20961;-72
2021/07/13 04:34:42;;;;;;;19.35;8.88;;;;;;;22.82;68.78;99791.25;1622410;87;21591;-70
2021/07/13 04:37:08;;;;;;;28.65;8.53;;;;;;;22.86;69.02;99786.16;1642192;87;21525;-72
2021/07/13 04:39:35;;;;;;;23.67;7.80;;;;;;;22.95;68.70;99790.22;1609018;88;22308;-72
2021/07/13 04:42:01;;;;;;;20.23;7.25;;;;;;;23.02;68.20;99794.05;1596644;88;21111;-71
2021/07/13 04:44:28;;;;;;;17.98;5.83;;;;;;;23.11;67.68;99788.55;1610164;87;20992;-71
2021/07/13 04:46:54;;;;;;;18.23;7.15;;;;;;;23.24;67.08;99789.44;1650686;87;21017;-72
2021/07/13 04:49:21;;;;;;;14.93;8.35;;;;;;;23.31;66.40;99795.22;1634799;87;21530;-72
2021/07/13 04:51:48;;;;;;;18.30;7.60;;;;;;;23.41;66.75;99795.63;1624096;88;21537;-71
2021/07/13 04:54:15;;;;;;;13.98;5.67;;;;;;;23.52;66.38;99791.95;1597094;88;21577;-71
2021/07/13 04:56:42;;;;;;;12.47;6.75;;;;;;;23.59;66.23;99796.36;1624054;88;21068;-72
2021/07/13 04:59:09;;;;;;;15.10;6.62;;;;;;;23.65;66.05;99791.45;1637677;87;21048;-72
2021/07/13 05:01:35;;;;;;;12.20;5.95;;;;;;;23.75;66.19;99802.05;1622559;87;21231;-71
2021/07/13 05:04:02;;;;;;;12.93;8.10;;;;;;;23.74;65.66;99801.23;1622464;87;21068;-72
2021/07/13 05:06:29;;;;;;;14.30;5.85;;;;;;;23.74;66.01;99807.33;1629126;86;21044;-72
2021/07/13 05:08:55;;;;;;;11.03;5.92;;;;;;;23.76;65.39;99803.66;1632570;87;21112;-72
2021/07/13 05:11:23;;;;;;;21.12;8.78;;;;;;;23.78;65.48;99809.64;1624207;87;21514;-72
2021/07/13 05:13:51;;;;;;;17.80;7.60;;;;;;;23.78;65.84;99805.52;1642388;87;21041;-72
2021/07/13 05:16:20;;;;;;;16.10;6.62;;;;;;;23.80;65.76;99810.09;1627330;86;21572;-72
2021/07/13 05:18:46;;;;;;;8.38;5.62;;;;;;;23.80;65.62;99801.28;1596536;88;21545;-72
2021/07/13 05:21:14;;;;;;;12.80;7.00;;;;;;;23.85;65.47;99805.77;1624328;87;21032;-72
2021/07/13 05:23:42;;;;;;;11.60;6.55;;;;;;;23.88;65.50;99803.15;1624044;88;21584;-71
2021/07/13 05:26:10;;;;;;;15.13;5.90;;;;;;;23.96;65.26;99806.98;1636900;87;21057;-73
2021/07/13 05:28:36;;;;;;;16.07;7.83;;;;;;;24.07;65.19;99808.19;1650346;87;21037;-71
2021/07/13 05:31:03;;;;;;;15.40;8.18;;;;;;;24.14;64.75;99802.94;1622187;87;21076;-71
2021/07/13 05:33:30;;;;;;;15.65;7.87;;;;;;;24.19;64.57;99799.21;1650581;86;21017;-71
2021/07/13 05:35:56;;;;;;;9.98;6.72;;;;;;;24.26;64.61;99803.03;1622601;87;21061;-71
2021/07/13 05:38:23;;;;;;;17.00;8.20;;;;;;;24.35;64.47;99800.77;1628011;87;21116;-70
2021/07/13 05:40:50;;;;;;;17.35;10.35;;;;;;;24.42;64.38;99798.25;1624118;87;21024;-72
2021/07/13 05:43:16;;;;;;;32.58;12.45;;;;;;;24.48;64.11;99805.16;1623974;87;21564;-72
2021/07/13 05:45:44;;;;;;;43.98;14.58;;;;;;;24.52;64.45;99797.26;1643520;87;21048;-71
2021/07/13 05:48:11;;;;;;;58.05;13.05;;;;;;;24.56;64.79;99794.63;1633595;87;21562;-71
2021/07/13 05:50:37;;;;;;;53.60;16.27;;;;;;;24.60;65.08;99792.83;1624664;87;21039;-72
2021/07/13 05:53:04;;;;;;;45.17;14.58;;;;;;;24.62;65.28;99797.39;1624049;87;21120;-70
2021/07/13 05:55:30;;;;;;;53.48;17.17;;;;;;;24.60;65.58;99796.38;1646122;87;21562;-72
2021/07/13 05:57:56;;;;;;;68.72;16.85;;;;;;;24.64;65.81;99795.13;1650291;87;21029;-72
2021/07/13 06:00:23;;;;;;;58.90;15.20;;;;;;;24.68;66.00;99790.54;1650603;86;21115;-73
2021/07/13 06:02:49;;;;;;;46.25;15.48;;;;;;;24.75;65.84;99797.64;1607515;88;21252;-75
2021/07/13 06:05:15;;;;;;;50.88;16.15;;;;;;;24.85;65.57;99797.77;1606740;87;21008;-73
2021/07/13 06:07:47;;;;;;;35.43;13.05;;;;;;;24.91;65.35;99793.13;1596619;88;21096;-74
2021/07/13 06:10:14;;;;;;;47.73;13.72;;;;;;;24.97;65.17;99794.52;1624191;88;21079;-72
2021/07/13 06:12:42;;;;;;;36.70;14.38;;;;;;;25.03;65.16;99784.89;1596508;88;21040;-71
2021/07/13 06:15:11;;;;;;;32.10;11.60;;;;;;;25.10;65.34;99788.42;1640617;87;20968;-72
2021/07/13 06:17:40;;;;;;;26.35;11.38;;;;;;;25.16;65.56;99789.24;1650275;86;21040;-72
2021/07/13 06:20:09;;;;;;;27.80;12.78;;;;;;;25.23;65.62;99791.40;1650764;86;21544;-71
2021/07/13 06:22:35;;;;;;;27.25;11.53;;;;;;;25.29;65.39;99787.84;1642517;86;21092;-72
2021/07/13 06:25:01;;;;;;;32.15;12.78;;;;;;;25.30;65.38;99786.13;1637545;87;21072;-71
2021/07/13 06:27:28;;;;;;;32.23;13.68;;;;;;;25.35;65.25;99787.28;1650441;86;21054;-72
2021/07/13 06:29:54;;;;;;;27.13;11.45;;;;;;;25.40;65.13;99788.42;1650736;86;21110;-72
2021/07/13 06:32:20;;;;;;;20.62;9.13;;;;;;;25.40;65.18;99787.62;1611683;87;21506;-73
2021/07/13 06:34:47;;;;;;;13.08;7.33;;;;;;;25.44;64.14;99784.39;1634447;87;21044;-71
2021/07/13 06:37:13;;;;;;;10.68;7.03;;;;;;;25.47;62.26;99783.69;1650560;87;21075;-72
2021/07/13 06:39:40;;;;;;;13.80;8.45;;;;;;;25.53;61.73;99785.06;1650663;87;21968;-73
2021/07/13 06:42:06;;;;;;;11.15;7.55;;;;;;;25.60;61.18;99793.02;1650731;87;20996;-72
2021/07/13 06:44:33;;;;;;;17.98;8.05;;;;;;;25.69;61.49;99785.19;1642952;87;21083;-73
2021/07/13 06:46:59;;;;;;;10.10;8.35;;;;;;;25.78;61.33;99788.03;1606371;87;21590;-70
2021/07/13 06:49:26;;;;;;;9.00;7.97;;;;;;;25.86;61.30;99789.83;1629287;87;21592;-71
2021/07/13 06:51:52;;;;;;;8.55;7.75;;;;;;;25.93;60.91;99781.78;1640644;87;22127;-70
2021/07/13 06:54:18;;;;;;;18.98;10.18;;;;;;;26.00;60.01;99783.36;1650322;87;20961;-71
2021/07/13 06:56:44;;;;;;;10.82;8.75;;;;;;;26.05;59.58;99773.45;1622485;87;21036;-71
2021/07/13 06:59:11;;;;;;;12.73;7.50;;;;;;;26.11;59.29;99782.86;1633894;87;21071;-72
2021/07/13 07:01:37;;;;;;;8.30;7.53;;;;;;;26.08;58.88;99785.75;1624159;88;21123;-72
2021/07/13 07:04:04;;;;;;;9.60;8.53;;;;;;;26.08;59.42;99779.44;1596515;88;21121;-70
2021/07/13 07:06:30;;;;;;;15.72;8.43;;;;;;;26.12;59.66;99777.58;1596656;88;21040;-71
2021/07/13 07:08:57;;;;;;;19.02;8.95;;;;;;;26.16;59.83;99774.34;1632121;87;21540;-70
2021/07/13 07:11:23;;;;;;;9.88;8.15;;;;;;;26.24;59.92;99768.69;1622604;87;21061;-72
2021/07/13 07:13:49;;;;;;;10.55;8.90;;;;;;;26.30;59.34;99767.29;1628914;87;21080;-70
2021/07/13 07:16:16;;;;;;;13.53;10.50;;;;;;;26.36;58.97;99765.89;1624309;88;21196;-73
2021/07/13 07:18:44;;;;;;;8.93;8.03;;;;;;;26.43;58.70;99767.44;1650023;87;21062;-71
2021/07/13 07:21:12;;;;;;;14.45;7.67;;;;;;;26.52;58.36;99770.63;1650426;87;20973;-71
2021/07/13 07:23:38;;;;;;;10.13;6.78;;;;;;;26.60;58.14;99775.17;1650407;86;21613;-72
2021/07/13 07:26:04;;;;;;;13.58;6.37;;;;;;;26.70;57.70;99774.65;1650175;86;21060;-72
2021/07/13 07:28:31;;;;;;;8.60;6.33;;;;;;;26.78;56.21;99772.28;1627995;86;21133;-73
2021/07/13 07:30:57;;;;;;;13.60;6.95;;;;;;;26.84;56.29;99777.77;1624058;87;20964;-71
2021/07/13 07:33:25;;;;;;;6.50;5.83;;;;;;;26.90;56.17;99773.62;1643882;87;21005;-72
2021/07/13 07:35:51;;;;;;;7.47;6.72;;;;;;;26.93;54.53;99774.85;1650490;87;21029;-71
2021/07/13 07:38:17;;;;;;;12.03;7.30;;;;;;;26.88;55.71;99773.16;1610673;88;21193;-71
2021/07/13 07:40:44;;;;;;;10.05;6.58;;;;;;;26.86;56.28;99773.52;1624022;88;21007;-71
2021/07/13 07:43:11;;;;;;;12.75;6.53;;;;;;;26.93;56.24;99771.52;1623796;88;21537;-71
2021/07/13 07:45:38;;;;;;;7.03;6.03;;;;;;;27.01;55.61;99774.66;1623932;88;21602;-72
2021/07/13 07:48:05;;;;;;;7.55;6.85;;;;;;;27.09;55.87;99771.52;1641093;87;21113;-70
2021/07/13 07:50:31;;;;;;;10.85;6.58;;;;;;;27.17;55.90;99770.52;1650299;87;21036;-72
2021/07/13 07:52:57;;;;;;;11.45;7.37;;;;;;;27.26;55.19;99767.78;1627528;87;21723;-71
2021/07/13 07:55:26;;;;;;;12.88;7.25;;;;;;;27.32;55.13;99765.55;1650542;86;21570;-71
2021/07/13 07:57:52;;;;;;;8.23;6.50;;;;;;;27.44;55.12;99771.52;1626581;86;21012;-72
2021/07/13 08:00:18;;;;;;;15.38;7.40;;;;;;;27.54;55.09;99770.99;1603663;88;21092;-72
2021/07/13 08:02:45;;;;;;;21.25;8.73;;;;;;;27.64;54.76;99767.08;1605765;87;20996;-75
2021/07/13 08:05:11;;;;;;;12.47;7.33;;;;;;;27.73;54.34;99764.11;1649599;87;21528;-72
2021/07/13 08:07:39;;;;;;;13.48;7.30;;;;;;;27.79;54.01;99766.00;1650547;87;21001;-73
2021/07/13 08:10:07;;;;;;;6.17;5.67;;;;;;;27.85;54.16;99774.23;1650557;87;20965;-72
2021/07/13 08:12:35;;;;;;;13.25;7.15;;;;;;;27.93;54.37;99767.10;1640287;87;21000;-72
2021/07/13 08:15:04;;;;;;;20.40;6.78;;;;;;;28.04;54.39;99772.28;1647943;87;21059;-72
2021/07/13 08:17:30;;;;;;;13.45;6.83;;;;;;;28.16;53.90;99772.14;1627492;87;21178;-74
2021/07/13 08:19:58;;;;;;;8.13;6.92;;;;;;;28.28;53.48;99764.28;1623955;88;21297;-72
2021/07/13 08:22:26;;;;;;;8.30;7.42;;;;;;;28.37;52.93;99764.03;1647292;87;20957;-74
2021/07/13 08:24:53;;;;;;;9.98;5.87;;;;;;;28.49;52.54;99758.34;1624674;87;21072;-73
2021/07/13 08:27:19;;;;;;;10.70;7.00;;;;;;;28.57;51.70;99760.06;1631592;87;21116;-73
2021/07/13 08:29:45;;;;;;;8.28;6.05;;;;;;;28.63;50.80;99760.56;1622335;87;21045;-73
2021/07/13 08:32:12;;;;;;;8.78;6.12;;;;;;;28.60;50.42;99773.96;1615009;88;21112;-72
2021/07/13 08:34:38;;;;;;;8.03;6.85;;;;;;;28.42;50.86;99769.27;1596782;88;21085;-73
2021/07/13 08:37:05;;;;;;;8.63;5.97;;;;;;;28.36;51.45;99770.16;1603953;87;21128;-73
2021/07/13 08:39:32;;;;;;;9.70;5.90;;;;;;;28.41;51.60;99766.28;1638353;86;21056;-72
2021/07/13 08:42:03;;;;;;;16.75;7.37;;;;;;;28.46;51.84;99762.63;1615120;88;21021;-71
2021/07/13 08:44:34;;;;;;;10.13;6.08;;;;;;;28.52;50.43;99764.52;1618327;87;21029;-72
2021/07/13 08:47:00;;;;;;;8.53;5.72;;;;;;;28.58;50.45;99765.22;1624611;87;21170;-70
2021/07/13 08:49:26;;;;;;;13.03;6.03;;;;;;;28.69;50.11;99764.60;1606709;88;21025;-73
2021/07/13 08:51:55;;;;;;;6.80;5.92;;;;;;;28.82;50.18;99777.14;1615658;88;21113;-71
2021/07/13 08:54:23;;;;;;;11.53;6.90;;;;;;;28.93;50.09;99776.13;1591512;88;21543;-72
2021/07/13 08:56:50;;;;;;;6.90;6.20;;;;;;;29.00;50.01;99776.84;1588436;90;21054;-72
2021/07/13 08:59:16;;;;;;;7.35;5.70;;;;;;;29.10;50.27;99778.99;1581865;88;21129;-71
2021/07/13 09:01:42;;;;;;;9.95;6.35;;;;;;;29.17;49.53;99774.94;1625405;87;21608;-73
2021/07/13 09:04:09;;;;;;;11.00;6.92;;;;;;;29.18;49.71;99779.89;1614998;88;21061;-73
2021/07/13 09:06:50;;;;;;;13.93;6.62;;;;;;;29.20;49.97;99777.56;1615039;88;21545;-72
2021/07/13 09:09:31;;;;;;;16.37;6.22;;;;;;;29.26;50.21;99775.47;1574357;87;21612;-73
2021/07/13 09:12:16;;;;;;;6.42;5.83;;;;;;;29.35;49.25;99773.26;1612068;87;21592;-71
2021/07/13 09:14:55;;;;;;;6.67;5.42;;;;;;;29.46;49.49;99767.29;1633282;87;21585;-71
2021/07/13 09:17:43;;;;;;;8.10;5.80;;;;;;;29.56;49.50;99766.42;1641404;86;21029;-72
2021/07/13 09:20:23;;;;;;;14.45;6.97;;;;;;;29.56;50.44;99765.04;1638992;87;21005;-73
2021/07/13 09:23:06;;;;;;;10.98;5.37;;;;;;;29.62;50.95;99771.28;1641070;87;21028;-72
2021/07/13 09:25:37;;;;;;;10.03;6.67;;;;;;;29.74;49.25;99764.68;1595535;88;21076;-71
2021/07/13 09:28:20;;;;;;;7.53;6.47;;;;;;;29.79;49.17;99756.03;1621661;87;21009;-71
2021/07/13 09:30:58;;;;;;;13.30;6.30;;;;;;;29.88;49.69;99758.77;1601426;88;21131;-73
2021/07/13 09:33:27;;;;;;;9.55;6.58;;;;;;;29.94;49.72;99756.45;1620001;87;21055;-76
2021/07/13 09:36:17;;;;;;;12.35;6.25;;;;;;;30.04;49.21;99750.24;1609261;88;21609;-74
2021/07/13 09:38:53;;;;;;;7.47;5.87;;;;;;;30.09;48.93;99757.42;1533982;92;21037;-76
2021/07/13 09:41:23;;;;;;;11.50;7.25;;;;;;;30.10;49.11;99750.13;1606756;87;20996;-73
2021/07/13 09:44:05;;;;;;;8.33;5.90;;;;;;;30.16;49.34;99756.94;1625253;87;21120;-71
2021/07/13 09:46:37;;;;;;;7.97;6.60;;;;;;;30.22;48.90;99760.14;1602770;88;21057;-72
2021/07/13 09:49:24;;;;;;;;;;;;;;;30.23;48.84;99755.61;1626241;88;20984;-71
2021/07/13 09:51:58;;;;;;;11.70;5.72;;;;;;;30.17;48.96;99757.12;1603960;87;20166;-72
2021/07/13 09:54:44;;;;;;;17.05;6.25;;;;;;;30.12;49.10;99750.52;1623788;88;21044;-74
2021/07/13 09:57:16;;;;;;;6.10;5.33;;;;;;;30.14;49.01;99750.95;1624215;88;21099;-70
2021/07/13 09:59:48;;;;;;;15.10;6.55;;;;;;;30.21;48.65;99746.88;1644387;87;21153;-71
2021/07/13 10:02:17;;;;;;;6.53;5.25;;;;;;;30.31;47.89;99749.56;1648191;87;21333;-76
2021/07/13 10:04:46;;;;;;;10.15;6.35;;;;;;;30.30;47.57;99752.92;1638995;87;21107;-72
2021/07/13 10:07:19;;;;;;;8.08;6.00;;;;;;;30.30;47.16;99757.09;1619929;88;21012;-70
2021/07/13 10:09:49;;;;;;;9.27;5.23;;;;;;;30.34;46.96;99743.23;1598426;89;21093;-71
2021/07/13 10:12:17;;;;;;;6.15;5.37;;;;;;;30.41;46.72;99753.02;1627722;86;21594;-71
2021/07/13 10:14:47;;;;;;;7.78;4.75;;;;;;;30.47;46.22;99752.11;1601681;88;21574;-72
2021/07/13 10:17:15;;;;;;;11.03;6.33;;;;;;;30.27;46.45;99748.70;1601912;88;21143;-71
2021/07/13 10:19:52;;;;;;;6.17;5.53;;;;;;;30.24;47.80;99748.08;1623225;87;21003;-69
2021/07/13 10:22:20;;;;;;;6.37;5.15;;;;;;;30.37;47.59;99752.18;1628046;87;21017;-71
2021/07/13 10:24:50;;;;;;;7.85;5.15;;;;;;;30.40;47.38;99739.53;1626830;87;21363;-71
2021/07/13 10:27:29;;;;;;;8.50;5.67;;;;;;;30.51;46.98;99757.10;1597828;87;21068;-74
2021/07/13 10:30:07;;;;;;;6.60;6.00;;;;;;;30.52;46.80;99758.70;1632709;87;20969;-69
2021/07/13 10:32:38;;;;;;;7.90;7.20;;;;;;;30.53;46.85;99756.14;1622293;87;21541;-72
2021/07/13 10:35:23;;;;;;;23.83;20.97;;;;;;;30.54;46.80;99757.75;1642761;87;21004;-72
2021/07/13 10:38:00;;;;;;;6.60;5.75;;;;;;;30.61;47.13;99754.44;1631342;87;21055;-71
2021/07/13 10:40:33;;;;;;;5.62;4.95;;;;;;;30.68;47.08;99753.71;1594950;88;21096;-70
2021/07/13 10:43:04;;;;;;;6.08;5.58;;;;;;;30.72;47.44;99755.92;1635266;87;21117;-70
2021/07/13 10:45:35;;;;;;;8.35;5.28;;;;;;;30.74;46.95;99757.13;1627608;87;21073;-74
2021/07/13 10:48:19;;;;;;;10.58;7.55;;;;;;;30.80;46.03;99763.72;1626323;87;21088;-70
2021/07/13 10:50:54;;;;;;;7.83;6.05;;;;;;;30.82;46.12;99746.89;1614794;88;21168;-68
2021/07/13 10:53:39;;;;;;;7.37;4.78;;;;;;;30.84;46.04;99753.45;1630061;87;21081;-72
2021/07/13 10:56:19;;;;;;;10.30;5.87;;;;;;;30.88;45.56;99758.45;1621857;87;21021;-70
2021/07/13 10:58:51;;;;;;;4.78;4.37;;;;;;;30.97;45.38;99752.77;1619516;87;21068;-72
2021/07/13 11:01:21;;;;;;;5.55;5.12;;;;;;;31.02;45.22;99756.61;1640666;87;21068;-69
2021/07/13 11:04:00;;;;;;;7.97;5.25;;;;;;;31.05;45.20;99750.27;1641537;87;21125;-72
2021/07/13 11:06:50;;;;;;;7.05;5.70;;;;;;;31.00;45.30;99755.36;1614453;88;20978;-71
2021/07/13 11:09:23;;;;;;;6.67;5.45;;;;;;;31.00;45.55;99753.97;1640924;87;21123;-73
2021/07/13 11:11:50;;;;;;;6.30;5.70;;;;;;;31.11;45.14;99753.49;1622155;87;20989;-70
2021/07/13 11:14:17;;;;;;;8.63;6.95;;;;;;;31.28;44.71;99763.92;1622187;87;21147;-70
2021/07/13 11:16:50;;;;;;;8.28;5.92;;;;;;;31.17;44.54;99759.67;1641123;87;20966;-68
2021/07/13 11:19:18;;;;;;;6.40;5.78;;;;;;;30.86;44.94;99760.80;1613731;87;20981;-69
2021/07/13 11:21:48;;;;;;;9.75;5.83;;;;;;;30.83;45.43;99757.41;1644668;85;25219;-73
2021/07/13 11:24:20;;;;;;;9.63;5.58;;;;;;;30.89;45.21;99760.05;1609729;88;21049;-74
2021/07/13 11:26:49;;;;;;;6.20;5.65;;;;;;;31.04;44.62;99753.42;1632925;87;21068;-74
2021/07/13 11:29:25;;;;;;;9.00;6.10;;;;;;;31.20;44.54;99764.27;1640146;86;21144;-72
2021/07/13 11:32:00;;;;;;;17.77;6.65;;;;;;;31.31;44.46;99763.76;1661902;85;20966;-72
2021/07/13 11:34:38;;;;;;;7.65;6.95;;;;;;;31.30;44.23;99759.38;1661727;86;21036;-72
2021/07/13 11:37:07;;;;;;;8.10;6.35;;;;;;;31.30;43.62;99757.39;1641606;86;21182;-76
2021/07/13 11:39:38;;;;;;;6.62;5.70;;;;;;;31.35;43.25;99756.23;1645762;86;21141;-74